Honolulu, HI (96801)

11:41 AM HST del 16 Gennaio 2017 (GMT -1000)
Honolulu Harbor Pier 35 | | Change Station

Alt. 0 ft 21.32 °N, 157.88 °W | Updated 1 second ago

Parzialmente nuvoloso
Parzialmente nuvoloso
80.8 °F
Sembra 83 °F
N
9.0
Vento Variabile Vento da SE
Gusts 14.0 mph

Oggi
Massima -- | Minima -- °F
--% Possibilità di precip.
Ieri
Massima -- | Minima -- °F
Precip. -- in
Pressione 30.09 in
Visibilità 10.0 miglia
Nuvole Alcuni 2700 ft
Nubi sparse 5500 ft
Indice di calore 83 °F
Punto di rugiada 66 °F
Umidità 60%
Piovosità 0.00 in
Spessore del manto nevoso Non disponibile.
7:11 AM 6:11 PM
Gobba a levante, 78% visible
METAR PHNL 162053Z 03005KT 10SM FEW027 SCT055 27/15 A3009 RMK AO2 SLP190 T02670150 50003
Pressione 30.09 in
Visibilità 10.0 miglia
Nuvole Alcuni 2700 ft
Nubi sparse 5500 ft
Indice di calore 83 °F
Punto di rugiada 66 °F
Umidità 60%
Piovosità 0.00 in
Spessore del manto nevoso Non disponibile.
7:11 AM 6:11 PM
Gobba a levante, 78% visible
METAR PHNL 162053Z 03005KT 10SM FEW027 SCT055 27/15 A3009 RMK AO2 SLP190 T02670150 50003

Get Your Daily Forecast Email!

Thanks for signing up!

Be on the lookout for a verification email in your inbox.

You'll start receiving the daily forecast at 8 AM.

×

10-Day Weather Forecast

Almanac

Astronomia

Jan. 16, 2017 Alba Tramonto
Ora attuale
Crepuscolo civile
Crepuscolo nautico
Crepuscolo astronomico
Luna
Estensione della luce visibile
Lunghezza del giorno
Tomorrow will be .
, % of the Moon is Illuminated

Gli estremi di oggi

State Highs State Lows

Community

WunderPhotos

Upload Photos

1,962,540 foto caricate!

WunderBlog® & News

Nearby

Qualità dell'aria

  Qualità dell'aria Indice AQ Inquinante
Not available.

Profondità neve

Stazione Profondità Altitudine

Attività sismica

Città  Distanza Mag. Data & Ora
Minimo Magnitudo Mostrato è 2.5.

Temperature delle acque costiere

Località Temperatura

Stations

Stazioni meteo nelle vicinanze

Ubicazione della stazione Temp. Raffreddamento del vento Punto di rugiada Umidità Vento Precip. Alt. Aggiornato Tipo
                   

Watches & Warnings

There are currently no watches in effect.